Time;durP1;ratioP1;P1;durP2;ratioP2;P2;SDS_P1;SDS_P2;PMS_P1;PMS_P2;Temp;Humidity;BMP_temperature;BMP_pressure;BME280_temperature;BME280_humidity;BME280_pressure;Samples;Min_cycle;Max_cycle;Signal;HPM_P1;HPM_P2
2021/06/28 00:00:15;;;;;;;55.55;22.73;;;;;;;21.65;100.00;100330.07;1727135;82;21544;-78
2021/06/28 00:02:41;;;;;;;55.08;22.67;;;;;;;21.66;100.00;100326.75;1727283;82;21297;-77
2021/06/28 00:05:12;;;;;;;68.67;24.18;;;;;;;21.65;100.00;100324.58;1727366;82;20865;-78
2021/06/28 00:07:38;;;;;;;59.03;23.15;;;;;;;21.67;100.00;100322.86;1700262;83;21606;-78
2021/06/28 00:10:07;;;;;;;58.42;23.25;;;;;;;21.68;100.00;100323.90;1700370;83;22012;-77
2021/06/28 00:12:34;;;;;;;61.55;24.07;;;;;;;21.69;100.00;100329.60;1700397;83;21024;-78
2021/06/28 00:15:00;;;;;;;50.90;22.95;;;;;;;21.71;100.00;100329.28;1700513;84;21063;-75
2021/06/28 00:17:26;;;;;;;60.28;24.50;;;;;;;21.71;100.00;100333.39;1700362;84;21543;-78
2021/06/28 00:19:52;;;;;;;59.58;24.32;;;;;;;21.72;100.00;100329.50;1700680;83;21008;-77
2021/06/28 00:22:18;;;;;;;61.37;25.80;;;;;;;21.73;100.00;100329.72;1700234;83;21093;-77
2021/06/28 00:24:45;;;;;;;52.40;24.25;;;;;;;21.71;100.00;100331.45;1700240;84;21484;-76
2021/06/28 00:27:10;;;;;;;60.35;25.37;;;;;;;21.72;100.00;100332.23;1700377;84;21075;-77
2021/06/28 00:29:36;;;;;;;60.28;25.12;;;;;;;21.72;100.00;100327.55;1700278;83;20893;-77
2021/06/28 00:32:03;;;;;;;51.15;24.27;;;;;;;21.72;100.00;100333.61;1700473;84;21728;-77
2021/06/28 00:34:29;;;;;;;61.15;25.17;;;;;;;21.73;100.00;100330.51;1700340;83;22124;-76
2021/06/28 00:36:56;;;;;;;64.25;25.23;;;;;;;21.72;100.00;100330.30;1671445;83;20957;-77
2021/06/28 00:39:23;;;;;;;61.23;24.67;;;;;;;21.72;100.00;100330.30;1653041;86;21047;-77
2021/06/28 00:41:52;;;;;;;52.30;24.35;;;;;;;21.70;100.00;100334.52;1653218;86;21103;-77
2021/06/28 00:44:18;;;;;;;57.35;24.57;;;;;;;21.69;100.00;100340.58;1653203;86;21044;-81
2021/06/28 00:46:44;;;;;;;58.98;24.30;;;;;;;21.66;100.00;100345.37;1652785;86;21099;-78
2021/06/28 00:49:09;;;;;;;54.80;23.83;;;;;;;21.64;100.00;100339.99;1652847;86;21027;-75
2021/06/28 00:51:36;;;;;;;57.70;24.92;;;;;;;21.59;100.00;100335.55;1653203;86;20908;-78
2021/06/28 00:54:02;;;;;;;59.80;25.62;;;;;;;21.57;100.00;100330.17;1662790;84;21601;-78
2021/06/28 00:56:28;;;;;;;73.87;26.52;;;;;;;21.55;100.00;100335.98;1699839;84;21051;-82
2021/06/28 00:58:57;;;;;;;62.88;27.42;;;;;;;21.53;100.00;100338.25;1699824;84;21121;-77
2021/06/28 01:01:23;;;;;;;68.47;26.90;;;;;;;21.51;100.00;100339.18;1676408;84;21454;-78
2021/06/28 01:03:49;;;;;;;74.40;27.93;;;;;;;21.48;100.00;100335.75;1703018;83;20888;-76
2021/06/28 01:06:15;;;;;;;72.12;27.95;;;;;;;21.46;100.00;100342.13;1701504;83;21721;-78
2021/06/28 01:08:42;;;;;;;67.40;28.55;;;;;;;21.47;100.00;100347.84;1712260;83;21090;-78
2021/06/28 01:11:09;;;;;;;71.30;28.77;;;;;;;21.45;100.00;100350.94;1713151;83;21523;-77
2021/06/28 01:13:39;;;;;;;76.00;29.12;;;;;;;21.44;100.00;100355.37;1712524;83;20988;-78
2021/06/28 01:16:05;;;;;;;73.97;28.52;;;;;;;21.42;100.00;100361.21;1712410;83;21009;-78
2021/06/28 01:18:32;;;;;;;73.07;27.42;;;;;;;21.44;100.00;100356.20;1712880;83;20955;-77
2021/06/28 01:21:01;;;;;;;74.30;28.38;;;;;;;21.44;100.00;100356.74;1712928;83;21540;-78
2021/06/28 01:23:32;;;;;;;70.70;28.42;;;;;;;21.45;100.00;100361.11;1713017;83;21500;-77
2021/06/28 01:26:03;;;;;;;72.65;28.20;;;;;;;21.43;100.00;100362.80;1712863;83;21079;-83
2021/06/28 01:28:30;;;;;;;66.35;27.13;;;;;;;21.42;100.00;100356.30;1680455;85;21050;-75
2021/06/28 01:30:59;;;;;;;73.28;28.40;;;;;;;21.42;100.00;100368.64;1674056;85;21087;-77
2021/06/28 01:33:26;;;;;;;72.65;28.52;;;;;;;21.41;100.00;100370.55;1673855;85;21180;-77
2021/06/28 01:35:52;;;;;;;71.10;27.67;;;;;;;21.41;100.00;100372.50;1674034;85;21071;-75
2021/06/28 01:38:19;;;;;;;77.50;28.90;;;;;;;21.41;100.00;100375.24;1674040;85;21188;-85
2021/06/28 01:40:46;;;;;;;67.12;27.98;;;;;;;21.40;100.00;100373.08;1674019;85;21060;-78
2021/06/28 01:43:12;;;;;;;71.90;27.40;;;;;;;21.42;100.00;100370.80;1673820;85;21570;-78
2021/06/28 01:45:38;;;;;;;64.53;27.27;;;;;;;21.42;100.00;100378.23;1674091;85;21427;-81
2021/06/28 01:48:06;;;;;;;61.73;26.77;;;;;;;21.40;100.00;100379.93;1670143;85;21159;-75
2021/06/28 01:50:36;;;;;;;63.38;27.85;;;;;;;21.40;100.00;100386.78;1674151;85;21055;-77
2021/06/28 01:53:05;;;;;;;59.15;25.37;;;;;;;21.44;100.00;100384.16;1673933;85;21083;-79
2021/06/28 01:55:33;;;;;;;65.80;26.25;;;;;;;21.44;100.00;100382.79;1673811;85;21032;-76
2021/06/28 01:58:01;;;;;;;64.45;25.80;;;;;;;21.45;100.00;100383.04;1674159;85;21569;-75
2021/06/28 02:00:32;;;;;;;66.62;26.80;;;;;;;21.48;100.00;100383.73;1673968;85;21157;-78
2021/06/28 02:03:11;;;;;;;72.32;26.70;;;;;;;21.49;100.00;100383.37;1673747;85;20996;-78
2021/06/28 02:05:47;;;;;;;60.70;24.82;;;;;;;21.48;100.00;100383.16;1673959;85;21040;-77
2021/06/28 02:08:16;;;;;;;59.40;26.07;;;;;;;21.48;100.00;100383.73;1674047;85;21563;-77
2021/06/28 02:10:50;;;;;;;63.98;26.68;;;;;;;21.49;100.00;100382.59;1673916;85;20968;-77
2021/06/28 02:13:18;;;;;;;61.05;26.52;;;;;;;21.52;100.00;100390.13;1591119;90;21206;-78
2021/06/28 02:15:44;;;;;;;64.40;26.70;;;;;;;21.55;100.00;100392.20;1591106;90;21079;-78
2021/06/28 02:18:10;;;;;;;68.07;27.27;;;;;;;21.58;100.00;100386.03;1587720;90;21119;-77
2021/06/28 02:20:36;;;;;;;64.32;26.80;;;;;;;21.60;100.00;100387.88;1591250;90;21677;-78
2021/06/28 02:23:29;;;;;;;58.87;25.37;;;;;;;21.65;100.00;100393.70;1591225;90;20984;-78
2021/06/28 02:26:05;;;;;;;61.42;26.68;;;;;;;21.70;100.00;100394.28;1620660;87;21312;-77
2021/06/28 02:28:36;;;;;;;58.98;25.62;;;;;;;21.79;100.00;100392.81;1630533;87;21502;-78
2021/06/28 02:31:07;;;;;;;62.25;25.75;;;;;;;21.87;100.00;100385.06;1568788;90;21172;-77
2021/06/28 02:33:34;;;;;;;69.07;24.55;;;;;;;21.93;100.00;100389.76;1570273;90;21559;-78
2021/06/28 02:36:01;;;;;;;60.92;25.32;;;;;;;21.98;100.00;100388.17;1570277;90;21492;-77
2021/06/28 02:38:27;;;;;;;46.18;22.62;;;;;;;22.04;100.00;100377.77;1570326;90;21104;-78
2021/06/28 02:40:54;;;;;;;58.70;23.95;;;;;;;22.11;100.00;100384.85;1569204;90;21096;-78
2021/06/28 02:43:21;;;;;;;54.33;22.82;;;;;;;22.17;100.00;100387.05;1570333;90;21564;-78
2021/06/28 02:45:48;;;;;;;43.20;21.95;;;;;;;22.23;100.00;100391.16;1570229;90;21068;-75
2021/06/28 02:48:15;;;;;;;41.48;21.20;;;;;;;22.33;100.00;100391.30;1570596;90;21103;-77
2021/06/28 02:50:42;;;;;;;46.92;20.12;;;;;;;22.37;100.00;100390.82;1570059;90;21174;-78
2021/06/28 02:53:08;;;;;;;42.70;20.15;;;;;;;22.44;100.00;100388.86;1569821;90;21056;-78
2021/06/28 02:55:34;;;;;;;37.73;19.85;;;;;;;22.52;100.00;100390.69;1570211;90;21607;-78
2021/06/28 02:58:02;;;;;;;44.05;19.32;;;;;;;22.57;100.00;100392.41;1570640;90;21140;-76
2021/06/28 03:00:28;;;;;;;36.48;18.32;;;;;;;22.61;100.00;100394.11;1570438;90;21131;-81
2021/06/28 03:02:58;;;;;;;32.63;17.32;;;;;;;22.67;100.00;100388.59;1570210;90;21163;-79
2021/06/28 03:05:25;;;;;;;35.13;17.80;;;;;;;22.73;100.00;100385.62;1569952;90;21080;-77
2021/06/28 03:07:50;;;;;;;35.30;17.02;;;;;;;22.79;100.00;100389.72;1570428;90;21049;-78
2021/06/28 03:10:16;;;;;;;35.78;17.40;;;;;;;22.88;100.00;100390.38;1589371;88;21141;-78
2021/06/28 03:12:42;;;;;;;36.15;17.05;;;;;;;22.94;100.00;100390.36;1603454;89;21712;-78
2021/06/28 03:15:14;;;;;;;28.60;15.40;;;;;;;22.99;100.00;100394.28;1603412;89;21515;-80
2021/06/28 03:17:42;;;;;;;35.38;15.58;;;;;;;23.03;100.00;100395.20;1590425;90;21208;-78
2021/06/28 03:20:12;;;;;;;33.38;15.35;;;;;;;23.12;100.00;100398.59;1590826;90;21005;-78
2021/06/28 03:22:41;;;;;;;25.43;14.33;;;;;;;23.16;100.00;100402.02;1590939;90;21043;-83
2021/06/28 03:25:11;;;;;;;27.85;14.50;;;;;;;23.14;100.00;100400.98;1590773;90;21124;-77
2021/06/28 03:27:37;;;;;;;27.15;15.00;;;;;;;23.19;100.00;100408.19;1620128;86;21398;-76
2021/06/28 03:30:09;;;;;;;28.07;14.20;;;;;;;23.20;100.00;100402.91;1642944;86;21620;-75
2021/06/28 03:32:35;;;;;;;27.58;14.98;;;;;;;23.19;100.00;100406.23;1665577;86;21073;-78
2021/06/28 03:35:02;;;;;;;26.55;13.83;;;;;;;23.19;100.00;100408.19;1665616;86;20886;-77
2021/06/28 03:37:28;;;;;;;29.40;13.98;;;;;;;23.21;100.00;100414.16;1665050;86;21576;-82
2021/06/28 03:39:54;;;;;;;25.92;13.68;;;;;;;23.20;100.00;100414.70;1665724;86;21127;-78
2021/06/28 03:42:20;;;;;;;28.55;13.53;;;;;;;23.23;100.00;100409.08;1642622;86;20905;-76
2021/06/28 03:44:46;;;;;;;27.62;12.80;;;;;;;23.31;100.00;100410.89;1664903;84;20898;-78
2021/06/28 03:47:12;;;;;;;26.93;11.68;;;;;;;23.79;100.00;100412.59;1665551;86;20910;-78
2021/06/28 03:49:38;;;;;;;27.07;12.65;;;;;;;24.45;100.00;100406.97;1665587;86;21068;-79
2021/06/28 03:52:05;;;;;;;19.77;12.37;;;;;;;25.14;100.00;100406.50;1665377;86;21174;-77
2021/06/28 03:54:31;;;;;;;21.95;11.80;;;;;;;25.78;100.00;100406.92;1665239;86;21018;-78
2021/06/28 03:56:57;;;;;;;21.50;11.48;;;;;;;26.37;100.00;100408.91;1665277;84;20908;-79
2021/06/28 03:59:23;;;;;;;22.27;11.15;;;;;;;26.98;100.00;100400.89;1661651;86;21018;-78
2021/06/28 04:01:49;;;;;;;16.35;9.63;;;;;;;27.52;100.00;100400.14;1665265;86;20930;-82
2021/06/28 04:04:15;;;;;;;16.95;9.80;;;;;;;28.07;100.00;100402.46;1665599;86;21165;-81
2021/06/28 04:06:42;;;;;;;20.48;9.85;;;;;;;28.53;100.00;100401.21;1665029;86;21677;-78
2021/06/28 04:09:08;;;;;;;21.23;9.95;;;;;;;29.14;100.00;100404.31;1665368;86;21033;-79
2021/06/28 04:11:35;;;;;;;23.32;10.10;;;;;;;29.64;100.00;100400.30;1665188;85;21057;-79
2021/06/28 04:14:01;;;;;;;15.48;10.65;;;;;;;29.98;100.00;100406.29;1665253;86;21072;-81
2021/06/28 04:16:27;;;;;;;18.15;9.55;;;;;;;30.33;100.00;100402.72;1665415;86;20976;-79
2021/06/28 04:18:53;;;;;;;16.95;10.20;;;;;;;30.45;100.00;100403.50;1665575;85;21022;-80
2021/06/28 04:21:19;;;;;;;21.35;10.48;;;;;;;30.72;100.00;100402.44;1696105;83;21159;-78
2021/06/28 04:23:45;;;;;;;20.30;10.18;;;;;;;30.98;100.00;100399.78;1712174;82;20885;-80
2021/06/28 04:26:11;;;;;;;17.87;10.20;;;;;;;31.49;100.00;100395.55;1712153;83;20948;-80
2021/06/28 04:28:37;;;;;;;16.73;9.88;;;;;;;31.82;100.00;100392.72;1712080;83;21985;-77
2021/06/28 04:31:04;;;;;;;18.65;9.65;;;;;;;32.10;100.00;100393.73;1712241;82;21024;-88
2021/06/28 04:33:31;;;;;;;14.35;10.18;;;;;;;32.33;100.00;100388.93;1711723;83;21095;-79
2021/06/28 04:35:59;;;;;;;24.65;10.95;;;;;;;32.67;100.00;100394.55;1712117;82;21024;-81
2021/06/28 04:38:25;;;;;;;14.78;9.70;;;;;;;32.95;100.00;100396.83;1725718;82;21005;-80
2021/06/28 04:40:51;;;;;;;14.58;9.10;;;;;;;33.23;100.00;100401.26;1739081;82;21484;-80
2021/06/28 04:43:17;;;;;;;15.35;9.45;;;;;;;33.37;100.00;100397.48;1738880;82;21024;-81
2021/06/28 04:45:43;;;;;;;14.38;9.20;;;;;;;33.65;100.00;100399.08;1738980;81;20969;-82
2021/06/28 04:48:09;;;;;;;13.30;9.38;;;;;;;33.55;100.00;100398.64;1738939;82;21600;-80
2021/06/28 04:50:35;;;;;;;13.78;8.73;;;;;;;33.67;100.00;100406.44;1738293;81;21137;-81
2021/06/28 04:53:01;;;;;;;12.63;8.98;;;;;;;33.70;100.00;100412.58;1737597;82;22011;-78
2021/06/28 04:55:28;;;;;;;11.95;8.55;;;;;;;34.01;100.00;100411.10;1737484;81;21023;-81
2021/06/28 04:57:55;;;;;;;13.50;8.13;;;;;;;34.40;100.00;100411.82;1737151;81;21027;-82
2021/06/28 05:00:24;;;;;;;11.93;7.87;;;;;;;34.82;100.00;100409.43;1712644;82;21047;-83
2021/06/28 05:02:50;;;;;;;11.57;7.95;;;;;;;35.08;100.00;100409.13;1733431;81;21493;-82
2021/06/28 05:05:17;;;;;;;12.13;8.13;;;;;;;35.25;99.62;100404.36;1734623;81;21271;-82
2021/06/28 05:07:44;;;;;;;11.78;7.85;;;;;;;35.48;99.87;100405.63;1736961;81;21025;-82
2021/06/28 05:10:13;;;;;;;12.55;7.58;;;;;;;35.84;97.15;100409.00;1736656;81;21028;-82
2021/06/28 05:12:40;;;;;;;11.65;8.05;;;;;;;36.01;91.54;100412.59;1734742;81;20989;-81
2021/06/28 05:15:08;;;;;;;13.35;7.53;;;;;;;36.38;88.60;100416.06;1734846;81;21516;-81
2021/06/28 05:17:35;;;;;;;12.00;8.23;;;;;;;36.55;93.81;100417.63;1737112;81;21178;-82
2021/06/28 05:20:03;;;;;;;12.50;8.33;;;;;;;36.96;86.07;100392.17;1732961;81;21032;-81
2021/06/28 05:22:30;;;;;;;10.13;7.87;;;;;;;37.46;74.44;100404.72;1728708;82;21005;-80
2021/06/28 05:24:56;;;;;;;16.93;7.92;;;;;;;37.46;74.44;100404.72;1727212;83;21033;-80
2021/06/28 05:27:22;;;;;;;12.00;8.10;;;;;;;37.54;69.79;100430.63;1727270;82;21036;-79
2021/06/28 05:29:55;;;;;;;10.85;7.90;;;;;;;37.13;74.13;100415.39;1727467;83;21113;-78
2021/06/28 05:32:16;;;;;;;16.57;7.50;;;;;;;37.40;71.25;100433.23;1724804;82;21034;-80
2021/06/28 05:34:41;;;;;;;14.38;7.67;;;;;;;37.62;69.43;100431.17;1727388;83;20955;-79
2021/06/28 05:37:07;;;;;;;11.60;7.50;;;;;;;37.88;70.76;100437.56;1727427;83;20914;-82
2021/06/28 05:39:33;;;;;;;12.00;7.47;;;;;;;38.08;71.77;100435.94;1727272;83;20882;-79
2021/06/28 05:41:59;;;;;;;11.85;8.30;;;;;;;38.40;67.82;100436.27;1727371;82;21866;-86
2021/06/28 05:44:25;;;;;;;10.78;7.72;;;;;;;38.62;67.64;100444.13;1727357;83;20858;-80
2021/06/28 05:46:50;;;;;;;12.80;8.25;;;;;;;38.68;62.92;100442.91;1727734;81;20889;-81
2021/06/28 05:49:16;;;;;;;13.53;9.05;;;;;;;38.62;59.51;100440.49;1733872;81;20879;-83
2021/06/28 05:51:42;;;;;;;10.35;7.75;;;;;;;38.54;58.47;100439.20;1743418;81;21625;-82
2021/06/28 05:54:08;;;;;;;13.05;8.40;;;;;;;38.72;59.96;100437.92;1737172;81;21508;-82
2021/06/28 05:56:34;;;;;;;9.80;8.10;;;;;;;39.18;59.60;100440.27;1738290;81;21081;-82
2021/06/28 05:59:00;;;;;;;13.43;8.13;;;;;;;39.26;57.04;100439.52;1749877;81;20921;-82
2021/06/28 06:01:26;;;;;;;12.35;7.97;;;;;;;39.59;56.71;100443.92;1720608;81;20853;-83
2021/06/28 06:03:52;;;;;;;16.65;8.50;;;;;;;39.74;54.67;100446.34;1735535;81;21025;-83
2021/06/28 06:06:18;;;;;;;10.15;8.85;;;;;;;39.93;53.64;100442.96;1735728;82;21072;-84
2021/06/28 06:08:43;;;;;;;9.75;8.03;;;;;;;40.08;52.00;100448.80;1720525;80;21528;-86
2021/06/28 06:11:09;;;;;;;11.60;8.43;;;;;;;40.09;49.20;100441.25;1742001;81;20900;-86
2021/06/28 06:13:35;;;;;;;12.78;7.97;;;;;;;40.01;52.27;100444.88;1725207;81;20992;-87
2021/06/28 06:16:01;;;;;;;15.38;9.00;;;;;;;39.93;48.92;100452.21;1705727;84;21092;-82
2021/06/28 06:18:27;;;;;;;13.95;8.65;;;;;;;39.02;51.16;100464.61;1706005;83;21269;-79
2021/06/28 06:20:53;;;;;;;13.20;8.20;;;;;;;38.43;52.42;100468.36;1708991;82;20920;-81
2021/06/28 06:23:19;;;;;;;14.45;8.98;;;;;;;38.26;53.39;100469.11;1741960;82;21040;-82
2021/06/28 06:25:46;;;;;;;11.43;8.55;;;;;;;37.56;53.46;100462.52;1730086;81;20924;-83
2021/06/28 06:28:13;;;;;;;11.75;8.48;;;;;;;37.54;58.13;100474.22;1729317;81;20999;-81
2021/06/28 06:30:41;;;;;;;15.05;9.60;;;;;;;37.47;61.61;100476.62;1738165;81;21951;-85
2021/06/28 06:33:07;;;;;;;14.78;9.08;;;;;;;37.45;56.12;100469.86;1739532;81;21048;-85
2021/06/28 06:35:34;;;;;;;12.03;8.85;;;;;;;37.11;58.85;100480.31;1727649;81;21099;-86
2021/06/28 06:38:00;;;;;;;11.38;8.75;;;;;;;37.36;57.42;100480.37;1750758;81;21064;-85
2021/06/28 06:40:28;;;;;;;13.65;9.45;;;;;;;38.55;53.61;100472.53;1764620;81;21032;-84
2021/06/28 06:42:57;;;;;;;13.80;9.25;;;;;;;38.55;53.61;100472.53;1740273;81;21049;-85
2021/06/28 06:45:24;;;;;;;15.25;9.73;;;;;;;38.96;56.04;100493.86;1753655;80;21008;-84
2021/06/28 06:47:51;;;;;;;11.33;9.05;;;;;;;38.53;55.90;100502.39;1741523;81;21532;-80
2021/06/28 06:50:18;;;;;;;15.00;9.78;;;;;;;38.96;55.92;100497.45;1755129;81;21307;-84
2021/06/28 06:52:47;;;;;;;16.00;10.82;;;;;;;39.70;54.96;100500.72;1737494;81;21095;-83
2021/06/28 06:55:14;;;;;;;15.93;10.20;;;;;;;39.95;52.13;100508.22;1738785;81;21159;-83
2021/06/28 06:57:41;;;;;;;16.07;9.68;;;;;;;40.24;49.98;100514.09;1746709;81;21080;-83
2021/06/28 07:00:12;;;;;;;17.55;11.53;;;;;;;40.10;47.31;100515.47;1700432;82;21621;-83
2021/06/28 07:02:39;;;;;;;17.42;11.50;;;;;;;39.19;47.29;100534.89;1727825;80;21030;-86
2021/06/28 07:05:07;;;;;;;17.73;12.40;;;;;;;37.88;49.98;100541.67;1733832;81;21099;-82
2021/06/28 07:07:35;;;;;;;20.55;11.53;;;;;;;36.67;52.34;100543.09;1732831;81;21129;-84
2021/06/28 07:10:01;;;;;;;15.00;10.58;;;;;;;36.82;53.73;100538.67;1724287;81;21520;-84
2021/06/28 07:12:27;;;;;;;14.87;10.25;;;;;;;36.99;52.70;100543.02;1734422;80;21124;-85
2021/06/28 07:14:53;;;;;;;13.62;9.95;;;;;;;37.20;56.64;100546.49;1749931;80;22119;-82
2021/06/28 07:17:19;;;;;;;14.30;10.72;;;;;;;37.64;51.47;100544.81;1720050;82;20961;-87
2021/06/28 07:19:44;;;;;;;14.63;9.95;;;;;;;37.71;51.66;100548.02;1739863;81;21158;-86
2021/06/28 07:22:10;;;;;;;16.55;9.80;;;;;;;38.17;51.84;100547.21;1744405;81;20889;-86
2021/06/28 07:24:39;;;;;;;17.37;10.00;;;;;;;38.90;49.77;100542.20;1741938;81;21629;-86
2021/06/28 07:27:17;;;;;;;17.42;10.88;;;;;;;39.36;50.97;100542.53;1732090;82;21516;-87
2021/06/28 07:30:00;;;;;;;16.40;10.23;;;;;;;37.80;48.17;100531.28;1741304;81;21614;-85
2021/06/28 07:32:26;;;;;;;17.92;9.98;;;;;;;37.80;48.17;100531.28;1733237;82;22076;-85
2021/06/28 07:34:52;;;;;;;14.75;9.85;;;;;;;37.29;52.40;100552.25;1736176;81;20977;-84
2021/06/28 07:40:03;;;;;;;12.85;9.70;;;;;;;37.75;50.88;100545.13;1686356;84;21010;-86
2021/06/28 07:45:13;;;;;;;14.80;10.05;;;;;;;38.83;49.51;100558.09;1587596;88;21115;-86
2021/06/28 07:47:47;;;;;;;14.38;10.20;;;;;;;39.00;46.90;100565.75;1588232;89;21029;-86
2021/06/28 07:50:21;;;;;;;12.33;10.25;;;;;;;38.57;51.26;100563.63;1580332;89;21062;-84
2021/06/28 07:52:51;;;;;;;15.03;10.45;;;;;;;38.92;49.66;100559.45;1579241;89;21117;-86
2021/06/28 07:55:19;;;;;;;14.53;10.60;;;;;;;38.71;47.81;100558.92;1538800;90;21168;-86
2021/06/28 07:57:46;;;;;;;12.68;9.73;;;;;;;39.31;47.25;100558.03;1515687;93;21132;-86
2021/06/28 08:00:16;;;;;;;15.38;10.28;;;;;;;39.54;48.56;100561.00;1523894;93;21648;-85
2021/06/28 08:02:47;;;;;;;14.38;10.20;;;;;;;40.01;44.48;100557.17;1514249;93;21054;-86
2021/06/28 08:05:16;;;;;;;;;;;;;;;39.80;43.96;100560.22;1492996;95;21087;-86
2021/06/28 08:07:43;;;;;;;15.00;10.08;;;;;;;40.00;44.80;100558.39;1465116;95;20535;-85
2021/06/28 08:10:26;;;;;;;13.72;9.53;;;;;;;40.35;43.50;100559.00;1507162;93;21160;-85
2021/06/28 08:12:52;;;;;;;12.25;9.75;;;;;;;40.13;42.91;100564.73;1488692;95;21244;-86
2021/06/28 08:15:20;;;;;;;15.05;10.40;;;;;;;40.30;45.42;100561.05;1461507;95;21165;-85
2021/06/28 08:17:48;;;;;;;12.37;9.88;;;;;;;40.29;43.61;100569.34;1469182;97;21155;-82
2021/06/28 08:20:20;;;;;;;12.85;10.18;;;;;;;39.59;43.60;100573.07;1471199;95;21180;-85
2021/06/28 08:22:47;;;;;;;13.00;9.25;;;;;;;39.73;44.89;100570.33;1474619;97;21127;-82
2021/06/28 08:25:25;;;;;;;15.95;9.15;;;;;;;39.71;42.29;100573.63;1475236;95;21064;-85
2021/06/28 08:27:52;;;;;;;12.18;9.45;;;;;;;39.59;42.17;100576.52;1412350;99;21207;-90
2021/06/28 08:30:19;;;;;;;10.93;9.23;;;;;;;39.71;39.70;100585.52;1440453;99;21167;-80
2021/06/28 08:32:45;;;;;;;11.45;9.23;;;;;;;38.69;41.73;100594.42;1439939;99;21642;-84
2021/06/28 08:35:11;;;;;;;13.25;9.90;;;;;;;37.64;44.24;100590.44;1418903;101;21152;-82
2021/06/28 08:37:37;;;;;;;14.23;9.13;;;;;;;37.88;45.23;100576.23;1401500;101;21017;-85
2021/06/28 08:40:05;;;;;;;13.95;9.55;;;;;;;38.49;46.80;100577.78;1418825;101;21249;-87
2021/06/28 08:42:31;;;;;;;15.85;8.68;;;;;;;39.18;44.67;100579.23;1384674;101;21640;-84
2021/06/28 08:44:57;;;;;;;11.95;9.03;;;;;;;39.57;43.78;100577.62;1371275;103;21317;-84
2021/06/28 08:47:27;;;;;;;13.58;8.58;;;;;;;39.85;42.02;100587.04;1424854;100;21142;-84
2021/06/28 08:50:03;;;;;;;12.30;9.68;;;;;;;39.92;40.56;100587.55;1428743;100;21537;-83
2021/06/28 08:52:36;;;;;;;12.73;8.70;;;;;;;40.09;42.74;100586.66;1426106;100;21087;-85
2021/06/28 08:55:01;;;;;;;12.58;8.93;;;;;;;40.46;40.67;100588.86;1513072;94;21336;-84
2021/06/28 08:57:27;;;;;;;14.87;8.83;;;;;;;40.82;40.65;100586.73;1519742;93;21130;-85
2021/06/28 08:59:53;;;;;;;13.15;8.90;;;;;;;40.77;38.96;100574.62;1496627;95;21009;-85
2021/06/28 09:02:24;;;;;;;13.83;9.03;;;;;;;40.75;39.06;100579.98;1518051;92;20927;-85
2021/06/28 09:05:03;;;;;;;11.38;8.43;;;;;;;40.36;39.60;100589.47;1517749;94;21579;-84
2021/06/28 09:08:11;;;;;;;9.40;8.05;;;;;;;40.37;40.46;100581.92;1517155;93;21147;-84
2021/06/28 09:10:41;;;;;;;10.85;8.10;;;;;;;40.53;39.30;100593.56;1498082;94;21079;-85
2021/06/28 09:13:08;;;;;;;12.40;8.25;;;;;;;40.28;40.81;100593.83;1517812;94;21178;-85
2021/06/28 09:15:43;;;;;;;13.03;9.20;;;;;;;40.34;39.60;100589.92;1549589;92;21074;-85
2021/06/28 09:18:26;;;;;;;13.15;8.10;;;;;;;39.86;38.72;100591.42;1549537;92;21229;-84
2021/06/28 09:21:08;;;;;;;12.98;8.08;;;;;;;39.23;39.01;100601.17;1563393;90;21283;-84
2021/06/28 09:23:38;;;;;;;9.95;8.08;;;;;;;38.69;40.33;100599.44;1572985;86;21030;-84
2021/06/28 09:26:18;;;;;;;9.50;7.53;;;;;;;38.83;41.96;100598.16;1650670;86;21244;-82
2021/06/28 09:28:48;;;;;;;13.28;8.00;;;;;;;38.74;41.24;100589.00;1643868;87;21042;-84
2021/06/28 09:31:39;;;;;;;14.75;8.25;;;;;;;39.08;41.46;100595.89;1633815;87;21609;-84
2021/06/28 09:34:12;;;;;;;11.70;8.50;;;;;;;39.27;42.76;100601.84;1602603;89;21629;-84
2021/06/28 09:36:55;;;;;;;11.10;7.90;;;;;;;39.51;40.25;100600.00;1606219;89;21370;-84
2021/06/28 09:39:36;;;;;;;10.03;7.55;;;;;;;39.25;40.42;100595.09;1548706;92;21935;-83
2021/06/28 09:42:20;;;;;;;12.85;7.75;;;;;;;39.25;41.14;100590.86;1546494;91;21067;-82
2021/06/28 09:45:01;;;;;;;13.72;7.62;;;;;;;39.29;41.31;100582.45;1546372;92;21106;-83
2021/06/28 09:47:31;;;;;;;9.30;7.62;;;;;;;39.17;41.19;100593.14;1542282;92;21059;-81
2021/06/28 09:50:19;;;;;;;12.13;8.00;;;;;;;39.16;41.88;100588.76;1501603;93;21062;-84
2021/06/28 09:52:54;;;;;;;12.25;7.53;;;;;;;39.22;41.36;100586.14;1511442;92;21964;-83
2021/06/28 09:55:37;;;;;;;13.13;8.20;;;;;;;38.90;40.68;100583.84;1511707;93;21146;-83
2021/06/28 09:58:25;;;;;;;11.10;7.75;;;;;;;38.55;41.04;100583.79;1517244;92;21153;-83
2021/06/28 10:00:55;;;;;;;11.93;8.08;;;;;;;38.05;41.35;100584.61;1511785;93;21120;-82
2021/06/28 10:03:33;;;;;;;11.18;7.22;;;;;;;38.08;41.59;100580.27;1467115;96;21591;-84
2021/06/28 10:06:16;;;;;;;13.95;8.15;;;;;;;37.98;42.21;100572.18;1427698;100;21268;-82
2021/06/28 10:08:46;;;;;;;12.82;7.25;;;;;;;38.08;41.95;100569.01;1427132;98;21170;-86
2021/06/28 10:11:24;;;;;;;;;;;;;;;37.96;42.33;100569.80;1430896;98;21163;-77
2021/06/28 10:13:57;;;;;;;11.78;7.80;;;;;;;37.95;41.69;100574.64;1434207;98;20591;-82
2021/06/28 10:16:26;;;;;;;12.82;7.70;;;;;;;37.68;41.15;100573.64;1448794;97;21138;-82
2021/06/28 10:18:59;;;;;;;9.53;7.08;;;;;;;37.64;42.36;100581.38;1452548;97;21294;-81
2021/06/28 10:21:26;;;;;;;11.10;7.80;;;;;;;37.58;42.48;100574.73;1450907;97;21081;-79
2021/06/28 10:24:01;;;;;;;9.43;7.50;;;;;;;37.84;42.82;100574.78;1456096;97;21170;-85
2021/06/28 10:26:28;;;;;;;11.88;7.60;;;;;;;37.76;40.97;100577.62;1455934;97;21664;-84
2021/06/28 10:28:55;;;;;;;9.43;7.70;;;;;;;37.66;42.80;100576.73;1454748;98;21396;-84
2021/06/28 10:31:24;;;;;;;10.23;7.15;;;;;;;37.65;43.72;100573.72;1449359;96;21500;-84
2021/06/28 10:34:00;;;;;;;12.95;7.83;;;;;;;37.79;43.01;100568.30;1460777;98;21197;-82
2021/06/28 10:36:34;;;;;;;10.93;7.20;;;;;;;37.83;42.80;100568.95;1452869;96;21176;-83
2021/06/28 10:39:01;;;;;;;12.60;7.03;;;;;;;37.77;43.44;100573.57;1474940;95;21166;-82
2021/06/28 10:41:44;;;;;;;11.10;7.20;;;;;;;38.01;45.43;100571.28;1477753;95;21239;-81
2021/06/28 10:44:15;;;;;;;9.73;7.12;;;;;;;38.18;43.62;100574.93;1491270;95;21547;-82
2021/06/28 10:46:44;;;;;;;10.38;7.72;;;;;;;37.77;43.43;100572.98;1482825;95;21481;-81
2021/06/28 10:49:11;;;;;;;12.03;8.03;;;;;;;37.33;43.83;100575.45;1495864;95;21609;-84
2021/06/28 10:51:47;;;;;;;11.22;7.55;;;;;;;37.39;45.64;100574.28;1454399;97;21650;-81
2021/06/28 10:54:20;;;;;;;11.03;7.53;;;;;;;37.83;42.94;100576.81;1481247;94;21170;-84
2021/06/28 10:56:54;;;;;;;12.68;7.35;;;;;;;38.06;45.80;100574.91;1422037;98;21381;-86
2021/06/28 10:59:34;;;;;;;13.08;7.55;;;;;;;37.92;43.35;100584.58;1415136;98;21189;-84
2021/06/28 11:02:06;;;;;;;13.35;7.85;;;;;;;37.53;43.62;100588.55;1478638;95;21099;-84
2021/06/28 11:04:41;;;;;;;11.75;8.28;;;;;;;37.01;44.30;100582.73;1496156;95;21174;-86
2021/06/28 11:07:12;;;;;;;13.32;7.78;;;;;;;36.61;45.38;100584.96;1477235;95;21090;-81
2021/06/28 11:09:46;;;;;;;12.43;7.40;;;;;;;36.23;45.21;100579.05;1433565;100;21330;-87
2021/06/28 11:12:23;;;;;;;13.00;7.95;;;;;;;35.78;46.18;100585.26;1421258;99;21701;-85
2021/06/28 11:15:09;;;;;;;13.55;7.25;;;;;;;35.73;46.19;100582.95;1398392;100;21119;-85
2021/06/28 11:17:49;;;;;;;14.33;7.28;;;;;;;35.67;45.35;100591.08;1411719;101;21129;-86
2021/06/28 11:20:39;;;;;;;13.88;7.53;;;;;;;35.41;46.24;100587.18;1411475;101;21149;-83
2021/06/28 11:23:17;;;;;;;12.78;8.90;;;;;;;34.90;46.71;100583.73;1411570;101;21244;-86